EGPH

Edinburgh Airport

Edinburgh, United Kingdom
TAF EGPH 260458Z 2606/2706 24012KT 9999 SCT025 TEMPO 2606/2620 26020G30KT 7000 SHRA
Issued Valid From Valid To
Apr-26 @ 04:58 UTC
(58 minutes ago)
Apr-26 @ 06:00 UTC
(in 4 minutes)
Apr-27 @ 06:00 UTC
(in 24 hours)
Apr-26 @ 06:00 to Apr-27 @ 06:00
TAF EGPH 260458Z 2606/2706 24012KT 9999 SCT025
Wind Visibility Clouds
240° at 12 knots 10,000+ meters
  • Scattered at 2,500' AGL
Temporary Apr-26 @ 06:00 to Apr-26 @ 20:00
TEMPO 2606/2620 26020G30KT 7000 SHRA
Wind Visibility Conditions
260° at 20 knots
 Gusting to 30 knots
7,001 meters
  • Rain
TAF EGPH 260458Z 2606/2706 24012KT 9999 SCT025 TEMPO 2606/2620 26020G30KT 7000 SHRA
Issued Apr-26 @ 04:58 UTC
(58 minutes ago)
Valid From Apr-26 @ 06:00 UTC
(in 4 minutes)
Valid To Apr-27 @ 06:00 UTC
(in 24 hours)
Apr-26 @ 06:00 - Apr-27 @ 06:00
Wind Visibility
240° at 12 knots 10,000+ meters
Clouds
  • Scattered at 2,500' AGL
Temporary Apr-26 @ 06:00 - Apr-26 @ 20:00
Wind Visibility
260° at 20 knots
 Gusting to 30 knots
7,001 meters
Conditions
  • Rain